Hauptseite
METAR-TAF:

METAR-TAF

Flughäfen :

Aviano Air Base

Aviano, Italien

Breite: 46-02N, Länge: 012-36E, Höhe: 128 m

Beobachtung

Neuester Wetterbericht von vor 38 Minuten, um 12:55 UTC
Wind 7 kt aus Süd/Südost
Temperatur 11°C
Luftfeuchtigkeit 71%
Luftdruck 1007 hPa
Sichtweite 10 km oder mehr
Aufgelockert bewölkt in der Höhe von 2500 ft
Aufgelockert bewölkt in der Höhe von 5000 ft

METAR: LIPA 241255Z 15007KT 9999 SCT025 SCT050 11/06 Q1007 RMK BKN VIS MIN 9999 WIND THR05/////KT WIND THR23 /////KT A2977 BLU

Zeit: 14:33 (13:33 UTC)

Prognose

Neuester Wetterbericht von vor 2 Stunden und 33 Minuten, um 11:00 UTC
Gültige Prognose vom 24 um 12 UTC bis 24 um 21 UTC
Wind 8 kt aus Ost/Nordost
Sichtweite 10 km oder mehr
Aufgelockert bewölkt in der Höhe von 3000 ft
Aufgelockert bewölkt in der Höhe von 5000 ft

TAF: LIPA 241100Z 2412/2421 07008KT 9999 SCT030 SCT050

Wetterbeobachtungen und Prognosen von mehr als 4000 Flughäfen (METAR und TAF Bericht).

Die verfügbaren Stationen werden durch gelbe und rote Markierungen auf der Karte dargestellt.

Führen Sie die Maus auf sie, um den Namen der Station zu sehen.

Darauf klicken, um die Beobachtung von Wetterbeobachtungen und Prognosen zu sehen.

Um die Karte zu ändern : klicken Sie auf den grünen Tasten mit einem schwarzen Kreuz Zum Vergrößern, auf den grünen Button mit einem Gedankenstrich zu verkleinern, oder auf die grünen Pfeile für benachbarte Karten.


METAR-TAF: